createdAt,value
2022-08-24T00:00:20.776Z,98713.52
2022-08-24T00:01:37.418Z,98712.67
2022-08-24T00:02:39.332Z,98710.86
2022-08-24T00:03:42.444Z,98713.98
2022-08-24T00:04:44.173Z,98709.13
2022-08-24T00:05:48.805Z,98709.48
2022-08-24T00:06:50.608Z,98710.87
2022-08-24T00:07:53.168Z,98707.36
2022-08-24T00:08:58.133Z,98705.10
2022-08-24T00:10:00.502Z,98705.39
2022-08-24T00:11:02.521Z,98707.85
2022-08-24T00:12:05.258Z,98703.43
2022-08-24T00:13:07.290Z,98702.11
2022-08-24T00:14:09.330Z,98702.79
2022-08-24T00:15:13.415Z,98703.55
2022-08-24T00:16:17.086Z,98701.80
2022-08-24T00:17:20.592Z,98705.16
2022-08-24T00:18:23.372Z,98704.45
2022-08-24T00:19:25.857Z,98704.56
2022-08-24T00:20:29.152Z,98704.80
2022-08-24T00:21:30.813Z,98701.60
2022-08-24T00:22:32.475Z,98704.19
2022-08-24T00:23:36.193Z,98701.00
2022-08-24T00:24:38.190Z,98698.30
2022-08-24T00:25:40.050Z,98697.23
2022-08-24T00:26:41.759Z,98698.29
2022-08-24T00:27:43.549Z,98699.13
2022-08-24T00:28:45.451Z,98701.71
2022-08-24T00:29:49.349Z,98700.27
2022-08-24T00:30:51.753Z,98699.59
2022-08-24T00:31:54.064Z,98703.45
2022-08-24T00:32:56.508Z,98700.45
2022-08-24T00:33:59.436Z,98697.95
2022-08-24T00:35:01.163Z,98703.90
2022-08-24T00:36:04.923Z,98699.36
2022-08-24T00:37:06.758Z,98699.10
2022-08-24T00:38:08.612Z,98698.67
2022-08-24T00:39:12.959Z,98697.55
2022-08-24T00:40:23.282Z,98701.61
2022-08-24T00:41:25.142Z,98698.40
2022-08-24T00:42:26.985Z,98694.83
2022-08-24T00:43:29.076Z,98692.23
2022-08-24T00:44:30.815Z,98693.45
2022-08-24T00:45:42.834Z,98691.67
2022-08-24T00:46:51.751Z,98688.23
2022-08-24T00:48:06.506Z,98689.50
2022-08-24T00:49:19.642Z,98688.98
2022-08-24T00:50:33.368Z,98683.58
2022-08-24T00:51:54.957Z,98686.15
2022-08-24T00:53:01.684Z,98685.09
2022-08-24T00:54:13.639Z,98692.05
2022-08-24T00:55:23.556Z,98687.94
2022-08-24T00:56:42.653Z,98688.44
2022-08-24T00:57:49.432Z,98686.77
2022-08-24T00:58:57.605Z,98689.40
2022-08-24T01:00:08.187Z,98689.27
2022-08-24T01:01:14.341Z,98690.98
2022-08-24T01:02:23.271Z,98689.18
2022-08-24T01:03:27.980Z,98691.44
2022-08-24T01:04:39.393Z,98692.59
2022-08-24T01:05:41.497Z,98691.14
2022-08-24T01:06:43.370Z,98694.73
2022-08-24T01:07:50.640Z,98691.92
2022-08-24T01:08:56.328Z,98694.19
2022-08-24T01:10:06.014Z,98692.20
2022-08-24T01:11:13.615Z,98692.81
2022-08-24T01:12:17.465Z,98693.20
2022-08-24T01:13:20.475Z,98695.52
2022-08-24T01:14:24.458Z,98695.67
2022-08-24T01:15:26.844Z,98693.92
2022-08-24T01:16:47.325Z,98696.77
2022-08-24T01:18:08.581Z,98690.91
2022-08-24T01:19:29.388Z,98689.30
2022-08-24T01:20:31.500Z,98690.96
2022-08-24T01:21:52.487Z,98686.13
2022-08-24T01:23:09.822Z,98681.91
2022-08-24T01:24:14.069Z,98678.85
2022-08-24T01:25:17.070Z,98676.39
2022-08-24T01:26:25.789Z,98674.95
2022-08-24T01:27:28.981Z,98673.19
2022-08-24T01:28:31.464Z,98670.52
2022-08-24T01:29:36.070Z,98676.64
2022-08-24T01:30:38.277Z,98671.96
2022-08-24T01:31:40.932Z,98671.88
2022-08-24T01:32:53.462Z,98674.70
2022-08-24T01:33:56.719Z,98672.23
2022-08-24T01:34:59.579Z,98673.64
2022-08-24T01:36:30.652Z,98670.36
2022-08-24T01:37:33.000Z,98674.98
2022-08-24T01:38:35.541Z,98677.05
2022-08-24T01:39:46.097Z,98676.20
2022-08-24T01:40:55.207Z,98679.95
2022-08-24T01:41:57.803Z,98680.77
2022-08-24T01:42:59.466Z,98681.84
2022-08-24T01:44:01.316Z,98681.14
2022-08-24T01:45:05.811Z,98680.50
2022-08-24T01:46:08.509Z,98683.65
2022-08-24T01:47:12.981Z,98684.63
2022-08-24T01:48:15.333Z,98690.19
2022-08-24T01:49:30.321Z,98690.35
2022-08-24T01:50:34.575Z,98693.70
2022-08-24T01:51:36.359Z,98697.65
2022-08-24T01:53:03.887Z,98700.27
2022-08-24T01:54:04.558Z,98702.39
2022-08-24T01:55:09.833Z,98703.62
2022-08-24T01:56:11.571Z,98704.27
2022-08-24T01:57:16.060Z,98705.88
2022-08-24T01:58:19.086Z,98712.73
2022-08-24T01:59:21.006Z,98713.34
2022-08-24T02:00:22.859Z,98714.84
2022-08-24T02:01:29.229Z,98718.28
2022-08-24T02:02:32.161Z,98719.16
2022-08-24T02:03:34.625Z,98723.47
2022-08-24T02:04:37.629Z,98722.02
2022-08-24T02:05:39.542Z,98722.27
2022-08-24T02:06:44.614Z,98721.60
2022-08-24T02:07:48.744Z,98720.98
2022-08-24T02:08:50.486Z,98718.42
2022-08-24T02:09:52.941Z,98718.97
2022-08-24T02:10:56.745Z,98721.38
2022-08-24T02:11:59.110Z,98725.92
2022-08-24T02:13:02.447Z,98727.44
2022-08-24T02:14:05.916Z,98729.46
2022-08-24T02:15:09.480Z,98728.11
2022-08-24T02:16:11.796Z,98726.56
2022-08-24T02:17:13.524Z,98725.41
2022-08-24T02:18:15.891Z,98726.73
2022-08-24T02:19:17.819Z,98726.56
2022-08-24T02:20:21.571Z,98723.95
2022-08-24T02:21:25.159Z,98722.89
2022-08-24T02:22:27.788Z,98725.86
2022-08-24T02:23:29.717Z,98725.27
2022-08-24T02:24:31.848Z,98729.27
2022-08-24T02:25:33.817Z,98730.33
2022-08-24T02:26:35.883Z,98729.53
2022-08-24T02:27:38.242Z,98731.23
2022-08-24T02:28:40.858Z,98733.36
2022-08-24T02:29:43.372Z,98729.91
2022-08-24T02:30:45.123Z,98730.84
2022-08-24T02:31:47.167Z,98735.11
2022-08-24T02:32:49.192Z,98732.33
2022-08-24T02:33:51.049Z,98734.06
2022-08-24T02:34:54.858Z,98736.80
2022-08-24T02:35:57.425Z,98734.29
2022-08-24T02:36:59.905Z,98733.00
2022-08-24T02:38:01.955Z,98735.71
2022-08-24T02:39:06.867Z,98730.59
2022-08-24T02:40:10.223Z,98736.48
2022-08-24T02:41:12.789Z,98737.67
2022-08-24T02:42:15.563Z,98738.39
2022-08-24T02:43:17.312Z,98738.80
2022-08-24T02:44:20.599Z,98737.80
2022-08-24T02:45:22.850Z,98740.98
2022-08-24T02:46:27.943Z,98741.32
2022-08-24T02:47:38.168Z,98744.98
2022-08-24T02:48:41.719Z,98743.46
2022-08-24T02:49:43.501Z,98747.98
2022-08-24T02:50:49.159Z,98748.30
2022-08-24T02:51:50.959Z,98748.61
2022-08-24T02:52:54.849Z,98751.64
2022-08-24T02:53:59.269Z,98751.28
2022-08-24T02:55:01.348Z,98747.73
2022-08-24T02:56:03.619Z,98743.83
2022-08-24T02:57:06.678Z,98744.60
2022-08-24T02:58:10.650Z,98743.61
2022-08-24T02:59:12.617Z,98745.10
2022-08-24T03:00:18.942Z,98740.48
2022-08-24T03:01:30.445Z,98746.43
2022-08-24T03:02:32.703Z,98746.44
2022-08-24T03:03:35.935Z,98750.10
2022-08-24T03:04:37.826Z,98749.42
2022-08-24T03:05:40.059Z,98753.00
2022-08-24T03:06:42.433Z,98749.86
2022-08-24T03:07:44.451Z,98751.55
2022-08-24T03:08:47.907Z,98751.92
2022-08-24T03:09:58.306Z,98751.71
2022-08-24T03:11:00.607Z,98744.92
2022-08-24T03:12:02.503Z,98746.94
2022-08-24T03:13:04.860Z,98746.37
2022-08-24T03:14:08.031Z,98746.23
2022-08-24T03:15:12.766Z,98745.42
2022-08-24T03:16:14.806Z,98746.77
2022-08-24T03:17:16.667Z,98748.45
2022-08-24T03:18:19.261Z,98744.48
2022-08-24T03:19:27.340Z,98740.56
2022-08-24T03:20:29.432Z,98740.58
2022-08-24T03:21:33.142Z,98740.98
2022-08-24T03:22:34.922Z,98740.86
2022-08-24T03:23:37.182Z,98739.39
2022-08-24T03:24:39.599Z,98741.27
2022-08-24T03:25:41.952Z,98741.20
2022-08-24T03:26:44.466Z,98739.66
2022-08-24T03:27:46.873Z,98745.30
2022-08-24T03:28:49.547Z,98744.98
2022-08-24T03:29:51.623Z,98746.84
2022-08-24T03:30:53.643Z,98748.23
2022-08-24T03:31:57.448Z,98746.83
2022-08-24T03:33:01.200Z,98749.91
2022-08-24T03:34:04.196Z,98751.35
2022-08-24T03:35:06.620Z,98750.77
2022-08-24T03:36:12.424Z,98756.52
2022-08-24T03:37:16.373Z,98754.70
2022-08-24T03:38:18.341Z,98759.20
2022-08-24T03:39:20.326Z,98759.34
2022-08-24T03:40:24.655Z,98759.10
2022-08-24T03:41:28.896Z,98761.75
2022-08-24T03:42:30.653Z,98763.70
2022-08-24T03:43:46.883Z,98763.71
2022-08-24T03:44:49.790Z,98766.29
2022-08-24T03:45:52.247Z,98766.92
2022-08-24T03:46:54.237Z,98764.41
2022-08-24T03:47:57.033Z,98766.64
2022-08-24T03:48:59.375Z,98765.33
2022-08-24T03:50:01.508Z,98767.21
2022-08-24T03:51:04.826Z,98767.45
2022-08-24T03:52:07.098Z,98768.41
2022-08-24T03:53:08.898Z,98767.60
2022-08-24T03:54:12.526Z,98770.08
2022-08-24T03:55:14.803Z,98766.77
2022-08-24T03:56:17.437Z,98767.77
2022-08-24T03:57:19.716Z,98769.09
2022-08-24T03:58:21.612Z,98769.66
2022-08-24T03:59:24.291Z,98768.83
2022-08-24T04:00:28.711Z,98771.98
2022-08-24T04:01:31.279Z,98764.55
2022-08-24T04:02:33.698Z,98763.16
2022-08-24T04:03:38.342Z,98762.52
2022-08-24T04:04:40.085Z,98758.98
2022-08-24T04:05:42.413Z,98762.91
2022-08-24T04:06:46.806Z,98759.63
2022-08-24T04:07:49.038Z,98763.62
2022-08-24T04:08:52.252Z,98759.25
2022-08-24T04:09:55.129Z,98761.34
2022-08-24T04:10:58.445Z,98762.30
2022-08-24T04:12:00.220Z,98760.46
2022-08-24T04:13:02.478Z,98765.10
2022-08-24T04:14:04.930Z,98763.59
2022-08-24T04:15:07.213Z,98762.92
2022-08-24T04:16:17.240Z,98762.81
2022-08-24T04:17:19.556Z,98760.82
2022-08-24T04:18:25.701Z,98762.72
2022-08-24T04:19:30.718Z,98761.16
2022-08-24T04:20:38.924Z,98766.77
2022-08-24T04:21:40.875Z,98768.52
2022-08-24T04:22:42.854Z,98771.61
2022-08-24T04:23:48.169Z,98770.83
2022-08-24T04:24:51.902Z,98775.84
2022-08-24T04:25:53.844Z,98775.96
2022-08-24T04:26:55.894Z,98773.14
2022-08-24T04:27:59.758Z,98775.04
2022-08-24T04:29:02.360Z,98779.02
2022-08-24T04:30:14.053Z,98774.95
2022-08-24T04:31:59.173Z,98774.35
2022-08-24T04:33:01.237Z,98778.23
2022-08-24T04:34:03.513Z,98775.98
2022-08-24T04:35:06.314Z,98776.63
2022-08-24T04:36:10.158Z,98775.59
2022-08-24T04:37:14.590Z,98773.88
2022-08-24T04:38:19.389Z,98773.23
2022-08-24T04:39:33.704Z,98778.45
2022-08-24T04:40:50.596Z,98774.47
2022-08-24T04:41:52.430Z,98774.52
2022-08-24T04:42:55.410Z,98776.52
2022-08-24T04:43:57.716Z,98778.31
2022-08-24T04:44:59.526Z,98775.83
2022-08-24T04:46:08.335Z,98778.34
2022-08-24T04:47:10.117Z,98778.85
2022-08-24T04:48:14.474Z,98778.45
2022-08-24T04:49:16.500Z,98773.49
2022-08-24T04:50:18.397Z,98774.33
2022-08-24T04:51:25.880Z,98777.51
2022-08-24T04:52:29.114Z,98774.19
2022-08-24T04:53:31.926Z,98778.88
2022-08-24T04:54:34.176Z,98779.33
2022-08-24T04:55:50.267Z,98774.20
2022-08-24T04:56:52.546Z,98775.15
2022-08-24T04:57:54.325Z,98771.75
2022-08-24T04:58:56.320Z,98776.42
2022-08-24T04:59:58.375Z,98777.12
2022-08-24T05:01:00.430Z,98781.28
2022-08-24T05:02:02.357Z,98782.70
2022-08-24T05:03:04.532Z,98782.96
2022-08-24T05:04:06.474Z,98785.14
2022-08-24T05:05:09.778Z,98792.84
2022-08-24T05:06:15.353Z,98790.78
2022-08-24T05:07:18.371Z,98791.56
2022-08-24T05:08:20.566Z,98795.64
2022-08-24T05:09:22.282Z,98794.25
2022-08-24T05:10:24.594Z,98794.06
2022-08-24T05:11:29.973Z,98796.46
2022-08-24T05:12:32.093Z,98798.27
2022-08-24T05:13:37.520Z,98796.30
2022-08-24T05:14:39.264Z,98797.50
2022-08-24T05:15:43.225Z,98797.44
2022-08-24T05:16:51.001Z,98794.73
2022-08-24T05:17:54.635Z,98796.91
2022-08-24T05:18:56.665Z,98795.52
2022-08-24T05:19:58.753Z,98792.46
2022-08-24T05:21:00.742Z,98791.44
2022-08-24T05:22:03.778Z,98794.42
2022-08-24T05:23:05.976Z,98793.02
2022-08-24T05:24:12.802Z,98796.88
2022-08-24T05:25:15.825Z,98798.77
2022-08-24T05:26:25.830Z,98800.39
2022-08-24T05:27:28.724Z,98795.61
2022-08-24T05:28:31.735Z,98798.66
2022-08-24T05:29:34.680Z,98794.83
2022-08-24T05:30:41.979Z,98796.80
2022-08-24T05:31:46.232Z,98793.38
2022-08-24T05:32:49.275Z,98791.16
2022-08-24T05:33:52.118Z,98788.20
2022-08-24T05:34:54.017Z,98792.88
2022-08-24T05:35:55.882Z,98791.11
2022-08-24T05:36:58.180Z,98791.52
2022-08-24T05:38:07.407Z,98793.52
2022-08-24T05:39:14.489Z,98794.89
2022-08-24T05:40:19.735Z,98792.83
2022-08-24T05:41:29.415Z,98793.50
2022-08-24T05:42:41.802Z,98795.10
2022-08-24T05:43:44.348Z,98791.52
2022-08-24T05:44:46.157Z,98791.69
2022-08-24T05:45:49.809Z,98796.33
2022-08-24T05:46:51.651Z,98795.98
2022-08-24T05:47:53.395Z,98790.95
2022-08-24T05:49:45.833Z,98794.11
2022-08-24T05:50:55.542Z,98794.66
2022-08-24T05:51:57.847Z,98796.46
2022-08-24T05:53:00.341Z,98797.73
2022-08-24T05:54:04.418Z,98796.81
2022-08-24T05:55:14.074Z,98800.46
2022-08-24T05:56:18.536Z,98801.72
2022-08-24T05:57:22.250Z,98805.39
2022-08-24T05:58:37.755Z,98803.38
2022-08-24T05:59:40.115Z,98803.34
2022-08-24T06:00:49.697Z,98803.91
2022-08-24T06:01:51.681Z,98803.96
2022-08-24T06:02:53.759Z,98801.08
2022-08-24T06:03:57.480Z,98802.42
2022-08-24T06:04:59.214Z,98804.14
2022-08-24T06:06:03.785Z,98800.22
2022-08-24T06:07:10.221Z,98800.23
2022-08-24T06:08:13.195Z,98800.23
2022-08-24T06:09:15.078Z,98794.84
2022-08-24T06:10:35.990Z,98797.50
2022-08-24T06:11:40.908Z,98796.33
2022-08-24T06:12:42.763Z,98794.68
2022-08-24T06:13:44.510Z,98792.59
2022-08-24T06:14:47.918Z,98793.66
2022-08-24T06:16:20.308Z,98796.96
2022-08-24T06:17:23.018Z,98796.02
2022-08-24T06:18:26.545Z,98792.45
2022-08-24T06:19:28.896Z,98795.27
2022-08-24T06:20:32.165Z,98792.73
2022-08-24T06:21:34.099Z,98795.65
2022-08-24T06:22:35.803Z,98794.23
2022-08-24T06:23:39.947Z,98794.91
2022-08-24T06:25:01.705Z,98793.59
2022-08-24T06:26:23.675Z,98795.02
2022-08-24T06:27:26.285Z,98796.27
2022-08-24T06:28:30.597Z,98798.77
2022-08-24T06:29:34.091Z,98795.95
2022-08-24T06:30:48.984Z,98800.46
2022-08-24T06:31:54.676Z,98798.42
2022-08-24T06:33:00.723Z,98801.85
2022-08-24T06:34:13.230Z,98805.14
2022-08-24T06:35:14.949Z,98804.41
2022-08-24T06:36:18.534Z,98805.74
2022-08-24T06:37:27.538Z,98808.89
2022-08-24T06:38:31.412Z,98807.33
2022-08-24T06:39:33.419Z,98810.64
2022-08-24T06:40:36.429Z,98812.44
2022-08-24T06:41:39.415Z,98819.41
2022-08-24T06:42:44.108Z,98823.65
2022-08-24T06:43:56.984Z,98825.55
2022-08-24T06:45:03.240Z,98823.25
2022-08-24T06:46:06.642Z,98826.05
2022-08-24T06:47:14.150Z,98821.02
2022-08-24T06:48:16.342Z,98818.42
2022-08-24T06:49:19.236Z,98819.38
2022-08-24T06:50:22.105Z,98820.10
2022-08-24T06:51:26.474Z,98817.45
2022-08-24T06:52:28.629Z,98818.01
2022-08-24T06:53:30.659Z,98820.52
2022-08-24T06:54:33.094Z,98818.56
2022-08-24T06:55:38.098Z,98815.02
2022-08-24T06:56:39.824Z,98818.13
2022-08-24T06:57:41.942Z,98818.70
2022-08-24T06:58:44.724Z,98817.68
2022-08-24T06:59:50.066Z,98818.41
2022-08-24T07:00:55.144Z,98819.30
2022-08-24T07:01:58.311Z,98820.42
2022-08-24T07:03:02.214Z,98823.07
2022-08-24T07:04:05.013Z,98822.25
2022-08-24T07:05:35.838Z,98825.19
2022-08-24T07:06:55.140Z,98826.05
2022-08-24T07:07:57.682Z,98827.41
2022-08-24T07:09:00.663Z,98828.82
2022-08-24T07:10:02.506Z,98829.27
2022-08-24T07:11:05.821Z,98830.77
2022-08-24T07:12:07.939Z,98831.23
2022-08-24T07:13:11.490Z,98834.21
2022-08-24T07:14:14.126Z,98837.83
2022-08-24T07:15:16.671Z,98837.01
2022-08-24T07:16:21.352Z,98841.46
2022-08-24T07:17:26.293Z,98836.37
2022-08-24T07:18:28.957Z,98837.58
2022-08-24T07:19:30.822Z,98842.05
2022-08-24T07:20:32.576Z,98842.86
2022-08-24T07:21:42.682Z,98846.42
2022-08-24T07:22:45.353Z,98846.26
2022-08-24T07:23:54.013Z,98845.64
2022-08-24T07:24:55.708Z,98848.09
2022-08-24T07:25:57.529Z,98846.89
2022-08-24T07:27:00.823Z,98846.31
2022-08-24T07:28:06.763Z,98843.44
2022-08-24T07:29:43.573Z,98843.83
2022-08-24T07:30:39.736Z,98840.34
2022-08-24T07:31:44.211Z,98838.35
2022-08-24T07:32:57.545Z,98839.20
2022-08-24T07:33:59.853Z,98839.11
2022-08-24T07:35:01.604Z,98838.06
2022-08-24T07:36:03.936Z,98840.59
2022-08-24T07:37:07.853Z,98839.41
2022-08-24T07:38:12.868Z,98837.60
2022-08-24T07:39:14.971Z,98833.41
2022-08-24T07:40:18.068Z,98836.45
2022-08-24T07:41:51.318Z,98835.88
2022-08-24T07:42:48.802Z,98838.58
2022-08-24T07:43:50.591Z,98842.66
2022-08-24T07:44:52.280Z,98839.60
2022-08-24T07:45:54.362Z,98841.52
2022-08-24T07:46:57.068Z,98844.76
2022-08-24T07:49:29.379Z,98848.08
2022-08-24T07:50:37.243Z,98846.01
2022-08-24T07:51:46.771Z,98850.02
2022-08-24T07:52:49.071Z,98851.43
2022-08-24T07:53:53.923Z,98850.55
2022-08-24T07:54:57.590Z,98852.85
2022-08-24T07:55:59.445Z,98849.67
2022-08-24T07:57:04.793Z,98852.58
2022-08-24T07:58:07.358Z,98854.80
2022-08-24T07:59:13.096Z,98859.02
2022-08-24T08:00:19.575Z,98862.77
2022-08-24T08:01:23.373Z,98865.21
2022-08-24T08:02:29.958Z,98864.14
2022-08-24T08:03:38.281Z,98861.75
2022-08-24T08:04:40.865Z,98861.69
2022-08-24T08:05:43.213Z,98862.33
2022-08-24T08:06:45.060Z,98861.42
2022-08-24T08:07:51.502Z,98863.67
2022-08-24T08:08:54.289Z,98868.25
2022-08-24T08:09:56.094Z,98868.50
2022-08-24T08:10:58.101Z,98870.89
2022-08-24T08:11:59.973Z,98870.39
2022-08-24T08:13:03.553Z,98869.98
2022-08-24T08:14:06.385Z,98876.77
2022-08-24T08:15:09.903Z,98880.86
2022-08-24T08:16:12.743Z,98883.02
2022-08-24T08:17:15.190Z,98884.42
2022-08-24T08:18:19.586Z,98883.44
2022-08-24T08:19:21.355Z,98885.81
2022-08-24T08:20:23.162Z,98886.66
2022-08-24T08:21:43.733Z,98887.99
2022-08-24T08:23:05.090Z,98891.10
2022-08-24T08:24:15.243Z,98888.89
2022-08-24T08:25:19.271Z,98883.59
2022-08-24T08:26:21.268Z,98883.77
2022-08-24T08:27:35.822Z,98886.98
2022-08-24T08:28:38.172Z,98883.73
2022-08-24T08:29:40.901Z,98889.17
2022-08-24T08:30:42.808Z,98888.41
2022-08-24T08:31:45.922Z,98887.38
2022-08-24T08:32:47.778Z,98891.39
2022-08-24T08:33:49.488Z,98891.20
2022-08-24T08:34:52.898Z,98895.09
2022-08-24T08:36:19.242Z,98894.23
2022-08-24T08:37:26.075Z,98898.19
2022-08-24T08:38:28.986Z,98893.96
2022-08-24T08:39:33.986Z,98897.83
2022-08-24T08:40:41.557Z,98901.14
2022-08-24T08:42:30.513Z,98897.61
2022-08-24T08:43:46.297Z,98900.88
2022-08-24T08:45:06.467Z,98900.04
2022-08-24T08:46:24.235Z,98900.64
2022-08-24T08:48:07.860Z,98903.23
2022-08-24T08:49:45.032Z,98904.62
2022-08-24T08:51:26.686Z,98905.31
2022-08-24T08:52:43.621Z,98903.59
2022-08-24T08:54:01.349Z,98905.64
2022-08-24T08:55:29.370Z,98906.00
2022-08-24T08:57:06.482Z,98906.15
2022-08-24T08:58:19.676Z,98909.98
2022-08-24T08:59:59.116Z,98905.05
2022-08-24T09:01:10.655Z,98907.27
2022-08-24T09:02:16.013Z,98905.40
2022-08-24T09:03:32.832Z,98903.67
2022-08-24T09:05:47.471Z,98907.19
2022-08-24T09:07:10.098Z,98903.99
2022-08-24T09:08:57.843Z,98906.70
2022-08-24T09:10:42.170Z,98903.05
2022-08-24T09:12:08.254Z,98909.92
2022-08-24T09:13:42.490Z,98913.60
2022-08-24T09:15:09.903Z,98918.61
2022-08-24T09:16:43.432Z,98920.67
2022-08-24T09:18:16.908Z,98921.48
2022-08-24T09:19:40.344Z,98923.73
2022-08-24T09:21:33.969Z,98925.11
2022-08-24T09:22:43.523Z,98923.44
2022-08-24T09:24:05.949Z,98918.43
2022-08-24T09:25:16.351Z,98921.24
2022-08-24T09:26:27.163Z,98918.83
2022-08-24T09:28:05.285Z,98924.17
2022-08-24T09:29:19.080Z,98922.16
2022-08-24T09:30:27.560Z,98928.39
2022-08-24T09:32:00.958Z,98921.56
2022-08-24T09:33:21.235Z,98922.31
2022-08-24T09:34:35.569Z,98920.02
2022-08-24T09:36:02.083Z,98921.26
2022-08-24T09:37:28.481Z,98921.89
2022-08-24T09:39:06.133Z,98921.77
2022-08-24T09:40:35.961Z,98921.59
2022-08-24T09:41:59.925Z,98920.70
2022-08-24T09:43:58.316Z,98922.59
2022-08-24T09:45:20.324Z,98922.77
2022-08-24T09:47:06.553Z,98924.58
2022-08-24T09:48:15.833Z,98927.14
2022-08-24T09:49:50.944Z,98926.66
2022-08-24T09:51:26.296Z,98932.25
2022-08-24T09:52:42.829Z,98931.48
2022-08-24T09:54:20.634Z,98935.42
2022-08-24T09:55:34.318Z,98933.77
2022-08-24T09:56:51.486Z,98931.20
2022-08-24T09:58:03.674Z,98933.39
2022-08-24T09:59:18.597Z,98933.59
2022-08-24T10:00:31.242Z,98936.32
2022-08-24T10:01:41.768Z,98932.13
2022-08-24T10:03:02.727Z,98931.58
2022-08-24T10:04:19.642Z,98927.80
2022-08-24T10:05:36.344Z,98926.90
2022-08-24T10:06:55.827Z,98925.23
2022-08-24T10:08:39.361Z,98928.40
2022-08-24T10:10:10.520Z,98923.20
2022-08-24T10:11:12.118Z,98912.47
2022-08-24T10:12:55.570Z,98912.32
2022-08-24T10:14:23.839Z,98915.35
2022-08-24T10:15:36.668Z,98913.84
2022-08-24T10:16:42.302Z,98919.52
2022-08-24T10:18:08.378Z,98913.50
2022-08-24T10:19:19.245Z,98918.20
2022-08-24T10:20:24.381Z,98916.95
2022-08-24T10:21:29.081Z,98918.71
2022-08-24T10:22:49.564Z,98922.44
2022-08-24T10:24:03.234Z,98925.45
2022-08-24T10:25:30.110Z,98919.48
2022-08-24T10:27:00.172Z,98920.75
2022-08-24T10:28:37.645Z,98917.20
2022-08-24T10:30:16.066Z,98908.67
2022-08-24T10:31:43.708Z,98909.00
2022-08-24T10:33:28.788Z,98907.74
2022-08-24T10:34:42.396Z,98909.94
2022-08-24T10:35:56.232Z,98910.48
2022-08-24T10:37:06.853Z,98914.73
2022-08-24T10:38:47.733Z,98913.90
2022-08-24T10:39:57.841Z,98915.77
2022-08-24T10:41:33.850Z,98916.45
2022-08-24T10:43:26.095Z,98918.46
2022-08-24T10:44:48.679Z,98921.96
2022-08-24T10:46:10.080Z,98921.27
2022-08-24T10:47:30.897Z,98919.67
2022-08-24T10:49:20.261Z,98918.77
2022-08-24T10:50:55.754Z,98912.83
2022-08-24T10:52:16.870Z,98907.73
2022-08-24T10:53:24.360Z,98908.60
2022-08-24T10:54:26.502Z,98901.55
2022-08-24T10:55:32.409Z,98904.96
2022-08-24T10:56:40.104Z,98903.80
2022-08-24T10:57:56.552Z,98905.77
2022-08-24T10:59:27.123Z,98909.23
2022-08-24T11:00:30.700Z,98913.68
2022-08-24T11:01:35.956Z,98915.14
2022-08-24T11:02:40.397Z,98912.64
2022-08-24T11:04:25.339Z,98914.14
2022-08-24T11:05:41.737Z,98917.84
2022-08-24T11:07:05.670Z,98918.79
2022-08-24T11:08:07.898Z,98916.85
2022-08-24T11:09:19.285Z,98919.86
2022-08-24T11:10:28.618Z,98914.15
2022-08-24T11:11:42.551Z,98918.61
2022-08-24T11:12:44.729Z,98919.23
2022-08-24T11:13:59.186Z,98918.81
2022-08-24T11:15:10.851Z,98912.86
2022-08-24T11:16:25.803Z,98917.34
2022-08-24T11:17:30.184Z,98913.17
2022-08-24T11:18:55.320Z,98912.06
2022-08-24T11:19:59.252Z,98913.36
2022-08-24T11:21:02.760Z,98910.21
2022-08-24T11:22:27.402Z,98910.39
2022-08-24T11:23:36.478Z,98909.23
2022-08-24T11:24:46.507Z,98910.05
2022-08-24T11:26:05.222Z,98910.38
2022-08-24T11:27:16.176Z,98908.48
2022-08-24T11:28:25.452Z,98914.98
2022-08-24T11:29:49.871Z,98911.19
2022-08-24T11:30:51.639Z,98909.02
2022-08-24T11:31:53.475Z,98905.81
2022-08-24T11:33:04.718Z,98908.13
2022-08-24T11:34:10.642Z,98908.55
2022-08-24T11:35:34.823Z,98909.04
2022-08-24T11:36:39.115Z,98908.48
2022-08-24T11:37:40.869Z,98908.94
2022-08-24T11:38:45.817Z,98908.80
2022-08-24T11:39:47.706Z,98907.75
2022-08-24T11:40:52.402Z,98908.52
2022-08-24T11:42:03.317Z,98907.73
2022-08-24T11:43:13.919Z,98907.41
2022-08-24T11:44:38.772Z,98906.56
2022-08-24T11:46:04.130Z,98912.64
2022-08-24T11:47:24.658Z,98910.07
2022-08-24T11:48:36.217Z,98908.27
2022-08-24T11:50:14.538Z,98911.10
2022-08-24T11:51:35.623Z,98909.98
2022-08-24T11:53:00.619Z,98910.39
2022-08-24T11:54:19.496Z,98908.94
2022-08-24T11:55:38.496Z,98914.51
2022-08-24T11:57:10.785Z,98908.85
2022-08-24T11:58:23.159Z,98912.72
2022-08-24T11:59:48.199Z,98916.16
2022-08-24T12:01:34.788Z,98919.05
2022-08-24T12:02:55.408Z,98922.08
2022-08-24T12:04:31.982Z,98918.36
2022-08-24T12:05:53.365Z,98917.95
2022-08-24T12:07:07.877Z,98916.08
2022-08-24T12:08:34.397Z,98917.64
2022-08-24T12:10:00.757Z,98917.42
2022-08-24T12:11:19.377Z,98918.52
2022-08-24T12:12:38.827Z,98920.67
2022-08-24T12:13:59.061Z,98921.46
2022-08-24T12:15:24.929Z,98920.84
2022-08-24T12:16:47.829Z,98918.48
2022-08-24T12:18:13.089Z,98917.05
2022-08-24T12:19:35.723Z,98918.09
2022-08-24T12:20:43.664Z,98911.09
2022-08-24T12:21:55.739Z,98912.92
2022-08-24T12:23:02.893Z,98912.64
2022-08-24T12:24:13.095Z,98912.20
2022-08-24T12:25:35.994Z,98910.05
2022-08-24T12:26:45.564Z,98910.05
2022-08-24T12:27:47.353Z,98909.44
2022-08-24T12:28:59.966Z,98909.45
2022-08-24T12:30:07.353Z,98908.70
2022-08-24T12:31:31.811Z,98911.72
2022-08-24T12:32:42.422Z,98913.23
2022-08-24T12:33:51.537Z,98913.39
2022-08-24T12:35:14.857Z,98910.93
2022-08-24T12:36:51.325Z,98909.42
2022-08-24T12:38:09.578Z,98908.23
2022-08-24T12:39:19.734Z,98909.73
2022-08-24T12:40:42.712Z,98907.66
2022-08-24T12:42:27.763Z,98907.98
2022-08-24T12:43:44.999Z,98904.39
2022-08-24T12:44:58.794Z,98902.72
2022-08-24T12:46:01.354Z,98904.55
2022-08-24T12:47:03.525Z,98901.67
2022-08-24T12:48:14.862Z,98898.72
2022-08-24T12:49:27.042Z,98903.50
2022-08-24T12:50:46.492Z,98904.27
2022-08-24T12:52:18.947Z,98904.02
2022-08-24T12:53:42.443Z,98906.71
2022-08-24T12:55:14.350Z,98907.55
2022-08-24T12:56:37.869Z,98911.45
2022-08-24T12:58:00.663Z,98906.30
2022-08-24T12:59:21.100Z,98901.49
2022-08-24T13:00:32.822Z,98901.52
2022-08-24T13:01:42.073Z,98898.46
2022-08-24T13:02:55.001Z,98898.48
2022-08-24T13:04:41.673Z,98899.41
2022-08-24T13:05:48.478Z,98901.48
2022-08-24T13:07:05.239Z,98899.75
2022-08-24T13:08:16.185Z,98901.02
2022-08-24T13:09:31.183Z,98906.98
2022-08-24T13:10:45.202Z,98904.75
2022-08-24T13:11:47.334Z,98907.95
2022-08-24T13:13:09.253Z,98912.81
2022-08-24T13:14:31.178Z,98910.39
2022-08-24T13:15:32.975Z,98915.75
2022-08-24T13:16:49.202Z,98916.16
2022-08-24T13:17:57.784Z,98916.13
2022-08-24T13:19:32.386Z,98912.09
2022-08-24T13:20:36.697Z,98916.90
2022-08-24T13:21:43.350Z,98915.75
2022-08-24T13:23:21.738Z,98916.02
2022-08-24T13:24:29.626Z,98917.46
2022-08-24T13:25:58.065Z,98917.09
2022-08-24T13:27:11.744Z,98919.49
2022-08-24T13:28:22.720Z,98923.42
2022-08-24T13:29:34.768Z,98926.95
2022-08-24T13:31:08.635Z,98922.11
2022-08-24T13:32:44.157Z,98918.75
2022-08-24T13:33:53.957Z,98912.29
2022-08-24T13:34:58.620Z,98911.76
2022-08-24T13:36:06.262Z,98916.20
2022-08-24T13:37:22.389Z,98912.10
2022-08-24T13:38:24.041Z,98910.25
2022-08-24T13:39:56.893Z,98913.05
2022-08-24T13:41:10.496Z,98913.13